.
WxDataArchive / Data Records for 2006-06-25
2006-06-24 June 2006 2006-06-26

Data Records for Sunday, 25 June 2006

Time	Temp	Chill	HIndex	Humid	Dewpt	 Wind 	HiWind	WindDir	Rain 	Barom 
-----	----	-----	------	-----	-----	------	------	-------	-----	----- 
00:00	65.2	65.2	65.2	78	58.2	0	0	---	0.00	30.043 
00:05	65.0	65.0	65.0	79	58.3	0	0	---	0.00	30.043 
00:10	64.8	64.8	64.8	79	58.1	0	0	---	0.00	30.043 
00:15	64.7	64.7	64.7	79	58.0	0	0	---	0.00	30.040 
00:20	64.7	64.7	64.7	80	58.4	0	1	112	0.00	30.040 
00:25	65.0	65.0	65.0	78	58.0	0	1	112	0.00	30.040 
00:30	65.3	65.3	65.3	78	58.3	0	1	112	0.00	30.041 
00:35	65.5	65.5	65.5	78	58.5	0	0	---	0.00	30.041 
00:40	65.5	65.5	65.5	78	58.5	0	1	112	0.00	30.041 
00:45	65.5	65.5	65.5	77	58.1	0	1	112	0.00	30.040 
00:50	65.5	65.5	65.5	77	58.1	0	1	112	0.00	30.040 
00:55	65.5	65.5	65.5	77	58.1	0	1	112	0.00	30.040 
01:00	65.5	65.5	65.5	77	58.1	0	2	112	0.00	30.040 
01:05	65.5	65.5	65.5	77	58.1	0	1	112	0.00	30.040 
01:10	65.5	65.5	65.5	77	58.1	1	2	112	0.00	30.040 
01:15	65.5	65.5	65.5	77	58.1	1	3	112	0.00	30.039 
01:20	65.5	65.5	65.5	76	57.7	1	2	112	0.00	30.039 
01:25	65.3	65.3	65.3	76	57.5	1	2	112	0.00	30.039 
01:30	65.3	65.3	65.3	76	57.5	1	2	112	0.00	30.042 
01:35	65.3	65.3	65.3	76	57.5	1	3	90	0.00	30.042 
01:40	65.3	65.3	65.3	76	57.5	1	2	90	0.00	30.042 
01:45	65.2	65.2	65.2	77	57.8	0	1	90	0.00	30.042 
01:50	65.0	65.0	65.0	77	57.6	0	2	90	0.00	30.042 
01:55	64.8	64.8	64.8	77	57.4	1	3	90	0.00	30.042 
02:00	64.7	64.7	64.7	77	57.3	0	2	90	0.00	30.044 
02:05	64.5	64.5	64.5	77	57.1	0	0	---	0.00	30.044 
02:10	64.2	64.2	64.2	78	57.2	0	0	---	0.00	30.044 
02:15	63.9	63.9	63.9	78	56.9	0	0	---	0.00	30.045 
02:20	63.5	63.5	63.5	79	56.9	0	0	---	0.00	30.045 
02:25	63.2	63.2	63.2	80	56.9	0	0	---	0.00	30.045 
02:30	62.7	62.7	62.7	80	56.4	0	0	---	0.00	30.044 
02:35	62.4	62.4	62.4	81	56.5	0	0	---	0.00	30.044 
02:40	62.1	62.1	62.1	82	56.5	0	0	---	0.00	30.044 
02:45	61.8	61.8	61.8	82	56.2	0	0	---	0.00	30.045 
02:50	61.5	61.5	61.5	83	56.3	0	0	---	0.00	30.045 
02:55	61.3	61.3	61.3	84	56.4	0	0	---	0.00	30.045 
03:00	61.2	61.2	61.2	84	56.3	0	0	---	0.00	30.046 
03:05	60.9	60.9	60.9	84	56.0	0	0	---	0.00	30.046 
03:10	60.7	60.7	60.7	84	55.8	0	0	---	0.00	30.046 
03:15	60.5	60.5	60.5	85	56.0	0	0	---	0.00	30.041 
03:20	60.4	60.4	60.4	85	55.9	0	0	---	0.00	30.041 
03:25	60.2	60.2	60.2	85	55.7	0	0	---	0.00	30.041 
03:30	60.2	60.2	60.2	85	55.7	0	0	---	0.00	30.041 
03:35	60.1	60.1	60.1	85	55.6	0	0	---	0.00	30.041 
03:40	60.1	60.1	60.1	86	55.9	0	0	---	0.00	30.041 
03:45	59.9	59.9	59.9	85	55.4	0	0	---	0.00	30.040 
03:50	59.8	59.8	59.8	86	55.6	0	0	---	0.00	30.040 
03:55	59.6	59.6	59.6	86	55.4	0	0	---	0.00	30.040 
04:00	59.5	59.5	59.5	86	55.3	0	0	---	0.00	30.037 
04:05	59.5	59.5	59.5	86	55.3	0	0	---	0.00	30.037 
04:10	59.5	59.5	59.5	87	55.6	0	0	---	0.00	30.037 
04:15	59.5	59.5	59.5	88	55.9	0	0	---	0.00	30.032 
04:20	59.3	59.3	59.3	88	55.7	0	0	---	0.00	30.032 
04:25	59.3	59.3	59.3	88	55.7	0	1	90	0.00	30.032 
04:30	59.3	59.3	59.3	88	55.7	0	0	---	0.00	30.030 
04:35	59.2	59.2	59.2	88	55.6	0	0	---	0.00	30.030 
04:40	59.2	59.2	59.2	88	55.6	0	1	90	0.00	30.030 
04:45	59.5	59.5	59.5	87	55.6	0	1	90	0.00	30.028 
04:50	59.5	59.5	59.5	87	55.6	0	0	---	0.00	30.028 
04:55	59.3	59.3	59.3	87	55.4	0	0	---	0.00	30.028 
05:00	59.3	59.3	59.3	87	55.4	0	0	---	0.00	30.029 
05:05	59.2	59.2	59.2	87	55.3	0	0	---	0.00	30.029 
05:10	59.0	59.0	59.0	87	55.1	0	0	---	0.00	30.029 
05:15	58.9	58.9	58.9	87	55.0	0	0	---	0.00	30.028 
05:20	58.9	58.9	58.9	88	55.3	0	1	90	0.00	30.028 
05:25	58.9	58.9	58.9	88	55.3	0	0	---	0.00	30.028 
05:30	58.7	58.7	58.7	88	55.2	0	0	---	0.00	30.027 
05:35	58.9	58.9	58.9	88	55.3	0	1	90	0.00	30.027 
05:40	59.0	59.0	59.0	86	54.8	0	1	90	0.00	30.027 
05:45	59.2	59.2	59.2	86	55.0	0	0	---	0.00	30.025 
05:50	59.0	59.0	59.0	86	54.8	0	0	---	0.00	30.025 
05:55	58.9	58.9	58.9	86	54.7	0	1	90	0.00	30.025 
06:00	58.7	58.7	58.7	86	54.5	0	1	90	0.00	30.022 
06:05	58.6	58.6	58.6	86	54.4	0	0	---	0.00	30.022 
06:10	58.4	58.4	58.4	86	54.2	0	0	---	0.00	30.022 
06:15	58.3	58.3	58.3	87	54.4	0	1	90	0.00	30.023 
06:20	58.3	58.3	58.3	87	54.4	0	0	---	0.00	30.023 
06:25	58.3	58.3	58.3	87	54.4	0	0	---	0.00	30.023 
06:30	58.3	58.3	58.3	87	54.4	0	0	---	0.00	30.020 
06:35	58.3	58.3	58.3	87	54.4	0	0	---	0.00	30.020 
06:40	58.3	58.3	58.3	86	54.1	0	1	90	0.00	30.020 
06:45	58.4	58.4	58.4	85	53.9	0	1	90	0.00	30.019 
06:50	58.7	58.7	58.7	84	53.9	0	2	90	0.00	30.019 
06:55	58.9	58.9	58.9	84	54.1	0	2	90	0.00	30.019 
07:00	59.0	59.0	59.0	84	54.2	0	1	90	0.00	30.022 
07:05	59.3	59.3	59.3	83	54.1	1	3	90	0.00	30.022 
07:10	59.6	59.6	59.6	83	54.4	0	2	90	0.00	30.022 
07:15	59.9	59.9	59.9	83	54.7	0	1	90	0.00	30.023 
07:20	60.2	60.2	60.2	81	54.3	0	2	90	0.00	30.023 
07:25	60.7	60.7	60.7	80	54.5	1	3	90	0.00	30.023 
07:30	61.3	61.3	61.3	79	54.7	1	2	90	0.00	30.025 
07:35	61.8	61.8	61.8	79	55.2	0	1	90	0.00	30.025 
07:40	62.4	62.4	62.4	76	54.7	1	2	90	0.00	30.025 
07:45	62.7	62.7	62.7	75	54.7	1	4	90	0.00	30.022 
07:50	63.1	63.1	63.1	73	54.3	1	3	90	0.00	30.022 
07:55	63.4	63.4	63.4	75	55.3	1	2	90	0.00	30.022 
08:00	63.7	63.7	63.7	73	54.9	1	3	90	0.00	30.023 
08:05	63.9	63.9	63.9	73	55.1	1	3	90	0.00	30.023 
08:10	64.3	64.3	64.3	72	55.1	1	2	90	0.00	30.023 
08:15	64.7	64.7	64.7	71	55.1	1	2	90	0.00	30.026 
08:20	65.0	65.0	65.0	71	55.4	1	2	90	0.00	30.026 
08:25	65.2	65.2	65.2	69	54.8	2	4	112	0.00	30.026 
08:30	65.2	65.2	65.2	69	54.8	2	4	112	0.00	30.027 
08:35	65.5	65.5	65.5	69	55.1	1	3	90	0.00	30.027 
08:40	65.8	65.8	65.8	70	55.7	1	3	90	0.00	30.027 
08:45	66.3	66.3	66.3	69	55.8	2	4	90	0.00	30.026 
08:50	66.6	66.6	66.6	68	55.7	1	2	90	0.00	30.026 
08:55	66.9	66.9	66.9	65	54.7	2	5	90	0.00	30.026 
09:00	67.1	67.1	67.1	66	55.4	2	4	90	0.00	30.027 
09:05	67.3	67.3	67.3	63	54.3	2	4	90	0.00	30.027 
09:10	67.8	67.8	67.8	66	56.0	1	3	90	0.00	30.027 
09:15	68.6	68.6	68.6	65	56.4	1	2	90	0.00	30.033 
09:20	69.3	69.3	69.3	62	55.7	1	3	90	0.00	30.033 
09:25	69.8	69.8	69.8	56	53.4	1	4	90	0.00	30.033 
09:30	69.6	69.6	69.6	58	54.2	2	4	90	0.00	30.028 
09:35	69.9	69.9	69.9	56	53.5	1	3	112	0.00	30.028 
09:40	70.4	70.4	70.4	54	52.9	1	4	90	0.00	30.028 
09:45	71.1	71.1	71.1	54	53.6	1	4	90	0.00	30.025 
09:50	71.8	71.8	71.8	50	52.1	1	2	90	0.00	30.025 
09:55	72.3	72.3	72.3	48	51.5	2	5	90	0.00	30.025 
10:00	72.5	72.5	72.5	46	50.5	2	4	68	0.00	30.026 
10:05	72.5	72.5	72.5	44	49.3	2	4	112	0.00	30.026 
10:10	72.7	72.7	72.7	45	50.1	2	3	112	0.00	30.026 
10:15	72.7	72.7	72.7	46	50.7	1	2	112	0.00	30.026 
10:20	72.8	72.8	72.8	46	50.8	2	4	90	0.00	30.026 
10:25	73.2	73.2	73.2	46	51.2	1	3	90	0.00	30.026 
10:30	73.7	73.7	73.7	45	51.0	2	4	90	0.00	30.023 
10:35	74.0	74.0	74.0	47	52.5	1	5	90	0.00	30.023 
10:40	74.6	74.6	74.6	43	50.6	1	4	90	0.00	30.023 
10:45	75.1	75.1	77.6	45	52.3	2	3	90	0.00	30.018 
10:50	75.3	75.3	77.7	44	51.9	2	4	112	0.00	30.018 
10:55	75.1	75.1	77.7	48	54.1	1	3	90	0.00	30.018 
11:00	75.1	75.1	77.6	43	51.1	1	4	90	0.00	30.019 
11:05	75.6	75.6	77.8	43	51.5	1	3	90	0.00	30.019 
11:10	76.1	76.1	78.0	45	53.2	1	3	90	0.00	30.019 
11:15	76.5	76.5	78.1	43	52.3	1	2	90	0.00	30.018 
11:20	76.1	76.1	78.0	46	53.8	1	3	90	0.00	30.018 
11:25	76.3	76.3	78.1	45	53.4	1	3	90	0.00	30.018 
11:30	76.5	76.5	78.2	46	54.2	1	3	90	0.00	30.016 
11:35	76.8	76.8	78.5	50	56.7	1	3	90	0.00	30.016 
11:40	77.0	77.0	78.5	46	54.6	1	3	90	0.00	30.016 
11:45	77.2	77.2	78.5	44	53.6	1	4	90	0.00	30.017 
11:50	77.2	77.2	78.6	47	55.4	1	5	90	0.00	30.017 
11:55	77.0	77.0	78.5	48	55.8	0	1	90	0.00	30.017 
12:00	77.6	77.6	78.8	46	55.2	1	4	90	0.00	30.016 
12:05	78.1	78.1	79.1	46	55.6	2	4	90	0.00	30.016 
12:10	78.3	78.3	79.2	46	55.8	2	5	90	0.00	30.016 
12:15	78.3	78.3	79.2	45	55.2	2	4	112	0.00	30.011 
12:20	78.5	78.5	79.4	46	56.0	0	1	338	0.00	30.011 
12:25	79.2	79.2	79.8	46	56.6	0	2	22	0.00	30.011 
12:30	79.4	79.4	80.0	46	56.8	1	3	22	0.00	30.008 
12:35	79.6	79.6	80.1	46	57.0	0	2	22	0.00	30.008 
12:40	79.8	79.8	80.3	46	57.2	2	4	112	0.00	30.008 
12:45	79.4	79.4	80.0	46	56.8	1	4	112	0.00	30.006 
12:50	79.6	79.6	80.3	48	58.2	2	5	90	0.00	30.006 
12:55	79.6	79.6	80.0	45	56.4	2	3	90	0.00	30.006 
13:00	79.4	79.4	80.1	47	57.4	0	2	90	0.00	30.005 
13:05	79.8	79.8	80.0	43	55.3	1	4	90	0.00	30.005 
13:10	80.1	80.1	80.6	47	58.0	0	1	90	0.00	30.005 
13:15	80.7	80.7	80.8	44	56.7	1	3	90	0.00	29.997 
13:20	81.1	81.1	81.1	44	57.1	2	5	90	0.00	29.997 
13:25	80.9	80.9	80.9	43	56.3	1	5	90	0.00	29.997 
13:30	80.7	80.7	81.2	48	59.2	2	5	90	0.00	29.990 
13:35	80.5	80.5	80.9	47	58.4	3	6	112	0.00	29.990 
13:40	80.7	80.7	80.7	43	56.1	1	4	90	0.00	29.990 
13:45	81.4	81.4	81.5	45	58.0	1	3	90	0.00	29.984 
13:50	81.8	81.8	81.6	43	57.1	2	6	90	0.00	29.984 
13:55	82.0	82.0	81.9	44	57.9	1	4	68	0.00	29.984 
14:00	82.2	82.2	82.0	43	57.4	1	4	45	0.00	29.976 
14:05	82.4	82.4	82.6	46	59.5	2	6	112	0.00	29.976 
14:10	82.4	82.4	82.0	42	57.0	1	5	112	0.00	29.976 
14:15	82.4	82.4	82.2	43	57.6	1	4	112	0.00	29.977 
14:20	82.0	82.0	81.8	43	57.3	2	6	112	0.00	29.977 
14:25	81.4	81.4	81.3	43	56.7	1	3	315	0.00	29.977 
14:30	80.9	80.9	80.9	43	56.3	2	5	90	0.00	29.975 
14:35	80.7	80.7	80.7	43	56.1	1	4	112	0.00	29.975 
14:40	81.2	81.2	81.7	48	59.6	1	4	0	0.00	29.975 
14:45	82.4	82.4	82.9	48	60.7	1	4	90	0.00	29.973 
14:50	82.8	82.8	81.9	38	54.6	1	3	45	0.00	29.973 
14:55	82.8	82.8	82.4	42	57.3	1	2	45	0.00	29.973 
15:00	82.8	82.8	82.2	40	56.0	3	5	90	0.00	29.964 
15:05	82.4	82.4	82.7	47	60.1	1	3	90	0.00	29.964 
15:10	82.2	82.2	81.6	40	55.4	1	4	135	0.00	29.964 
15:15	82.2	82.2	81.6	40	55.4	2	5	112	0.00	29.961 
15:20	82.4	82.4	82.0	42	57.0	1	4	45	0.00	29.961 
15:25	82.6	82.6	82.0	40	55.8	2	6	90	0.00	29.961 
15:30	83.0	83.0	82.1	38	54.7	1	3	68	0.00	29.961 
15:35	83.4	83.4	83.0	42	57.9	2	5	90	0.00	29.961 
15:40	83.2	83.2	82.8	42	57.7	1	2	68	0.00	29.961 
15:45	83.2	83.2	82.3	38	54.9	1	4	112	0.00	29.960 
15:50	82.8	82.8	82.6	43	58.0	2	4	112	0.00	29.960 
15:55	82.0	82.0	81.6	41	55.9	2	5	90	0.00	29.960 
16:00	81.4	81.4	81.2	42	56.1	2	4	90	0.00	29.960 
16:05	81.8	81.8	81.5	42	56.4	2	4	90	0.00	29.960 
16:10	82.2	82.2	81.9	42	56.8	1	4	270	0.00	29.960 
16:15	82.6	82.6	81.6	37	53.7	1	3	68	0.00	29.962 
16:20	82.4	82.4	81.6	38	54.2	2	5	112	0.00	29.962 
16:25	81.8	81.8	81.4	41	55.8	1	4	90	0.00	29.962 
16:30	81.1	81.1	80.9	42	55.8	0	2	90	0.00	29.963 
16:35	80.5	80.5	80.4	41	54.6	0	1	68	0.00	29.963 
16:40	80.3	80.3	80.3	42	55.1	1	2	112	0.00	29.963 
16:45	80.1	80.1	80.3	44	56.2	1	3	90	0.00	29.963 
16:50	79.9	79.9	80.4	46	57.2	0	2	112	0.00	29.963 
16:55	79.9	79.9	79.9	41	54.1	0	3	112	0.00	29.963 
17:00	79.9	79.9	80.1	43	55.4	1	3	90	0.00	29.962 
17:05	79.9	79.9	80.4	46	57.2	2	5	90	0.00	29.962 
17:10	79.9	79.9	80.3	45	56.6	1	4	90	0.00	29.962 
17:15	79.9	79.9	80.5	48	58.4	1	4	90	0.00	29.963 
17:20	79.9	79.9	80.4	47	57.8	0	2	90	0.00	29.963 
17:25	79.9	79.9	80.5	48	58.4	1	3	90	0.00	29.963 
17:30	79.9	79.9	80.3	45	56.6	1	4	90	0.00	29.961 
17:35	79.8	79.8	80.2	45	56.5	0	2	90	0.00	29.961 
17:40	79.6	79.6	80.3	48	58.2	1	3	90	0.00	29.961 
17:45	79.4	79.4	80.1	48	58.0	1	4	112	0.00	29.960 
17:50	79.2	79.2	79.9	47	57.2	2	5	90	0.00	29.960 
17:55	79.2	79.2	79.9	47	57.2	1	3	90	0.00	29.960 
18:00	79.4	79.4	80.0	46	56.8	1	4	90	0.00	29.956 
18:05	79.4	79.4	80.1	47	57.4	0	3	90	0.00	29.956 
18:10	79.6	79.6	80.1	46	57.0	2	4	90	0.00	29.956 
18:15	79.8	79.8	80.3	46	57.2	1	4	112	0.00	29.954 
18:20	79.6	79.6	80.1	46	57.0	2	5	90	0.00	29.954 
18:25	79.4	79.4	80.0	46	56.8	1	3	22	0.00	29.954 
18:30	79.0	79.0	79.7	46	56.4	2	6	45	0.00	29.948 
18:35	78.8	78.8	79.5	45	55.6	2	4	90	0.00	29.948 
18:40	78.6	78.6	79.5	47	56.7	1	3	90	0.00	29.948 
18:45	78.3	78.3	79.1	44	54.6	1	4	90	0.00	29.948 
18:50	78.3	78.3	79.3	47	56.4	1	5	90	0.00	29.948 
18:55	78.1	78.1	79.1	46	55.6	2	5	112	0.00	29.948 
19:00	78.3	78.3	79.2	45	55.2	2	4	112	0.00	29.946 
19:05	78.3	78.3	79.2	46	55.8	1	4	112	0.00	29.946 
19:10	78.6	78.6	79.4	46	56.1	1	3	68	0.00	29.946 
19:15	78.8	78.8	79.7	48	57.4	0	2	68	0.00	29.942 
19:20	78.8	78.8	79.5	45	55.6	2	5	90	0.00	29.942 
19:25	78.6	78.6	79.4	46	56.1	2	4	90	0.00	29.942 
19:30	78.3	78.3	79.2	46	55.8	2	4	90	0.00	29.943 
19:35	78.1	78.1	79.2	47	56.2	3	5	90	0.00	29.943 
19:40	77.7	77.7	78.9	48	56.4	2	4	90	0.00	29.943 
19:45	77.6	77.6	78.9	48	56.3	1	3	90	0.00	29.944 
19:50	77.4	77.4	78.8	49	56.7	1	4	90	0.00	29.944 
19:55	77.2	77.2	78.7	48	56.0	2	5	112	0.00	29.944 
20:00	77.0	77.0	78.5	48	55.8	3	7	112	0.00	29.944 
20:05	77.0	77.0	78.7	52	58.0	1	4	112	0.00	29.944 
20:10	76.8	76.8	78.5	50	56.7	1	4	112	0.00	29.944 
20:15	76.7	76.7	78.4	49	56.1	1	4	90	0.00	29.940 
20:20	76.5	76.5	78.3	48	55.3	1	2	68	0.00	29.940 
20:25	76.3	76.3	78.2	49	55.7	1	2	68	0.00	29.940 
20:30	76.1	76.1	78.1	49	55.5	0	3	68	0.00	29.940 
20:35	76.0	76.0	78.1	50	56.0	0	2	68	0.00	29.940 
20:40	75.6	75.6	77.9	51	56.2	1	2	68	0.00	29.940 
20:45	75.4	75.4	77.8	51	56.0	1	3	68	0.00	29.941 
20:50	75.3	75.3	77.7	53	57.0	1	2	68	0.00	29.941 
20:55	74.9	74.9	74.9	54	57.1	1	2	68	0.00	29.941 
21:00	74.6	74.6	74.6	54	56.8	0	2	68	0.00	29.942 
21:05	74.2	74.2	74.2	54	56.5	0	1	68	0.00	29.942 
21:10	73.9	73.9	73.9	55	56.7	0	1	68	0.00	29.942 
21:15	73.5	73.5	73.5	55	56.3	0	0	---	0.00	29.934 
21:20	73.2	73.2	73.2	56	56.5	0	1	68	0.00	29.934 
21:25	72.7	72.7	72.7	57	56.6	0	0	---	0.00	29.934 
21:30	72.3	72.3	72.3	58	56.7	0	1	68	0.00	29.933 
21:35	72.0	72.0	72.0	58	56.4	0	1	68	0.00	29.933 
21:40	71.8	71.8	71.8	58	56.2	0	1	68	0.00	29.933 
21:45	71.8	71.8	71.8	57	55.7	0	2	68	0.00	29.939 
21:50	71.8	71.8	71.8	55	54.7	0	2	68	0.00	29.939 
21:55	71.8	71.8	71.8	56	55.2	0	2	68	0.00	29.939 
22:00	71.8	71.8	71.8	54	54.2	0	2	68	0.00	29.938 
22:05	71.8	71.8	71.8	54	54.2	1	2	45	0.00	29.938 
22:10	71.6	71.6	71.6	54	54.1	0	2	45	0.00	29.938 
22:15	71.5	71.5	71.5	55	54.5	0	2	45	0.00	29.941 
22:20	71.3	71.3	71.3	55	54.3	0	2	45	0.00	29.941 
22:25	71.1	71.1	71.1	55	54.1	1	4	45	0.00	29.941 
22:30	71.1	71.1	71.1	55	54.1	1	2	68	0.00	29.944 
22:35	71.1	71.1	71.1	56	54.6	1	3	90	0.00	29.944 
22:40	70.9	70.9	70.9	57	54.9	1	3	90	0.00	29.944 
22:45	70.8	70.8	70.8	56	54.3	1	3	90	0.00	29.946 
22:50	70.8	70.8	70.8	57	54.8	1	4	112	0.00	29.946 
22:55	70.6	70.6	70.6	57	54.6	1	4	68	0.00	29.946 
23:00	70.4	70.4	70.4	58	54.9	0	4	112	0.00	29.953 
23:05	70.3	70.3	70.3	59	55.3	0	2	112	0.00	29.953 
23:10	70.1	70.1	70.1	60	55.6	0	2	112	0.00	29.953 
23:15	69.9	69.9	69.9	61	55.8	0	1	112	0.00	29.949 
23:20	69.6	69.6	69.6	61	55.5	0	3	112	0.00	29.949 
23:25	69.4	69.4	69.4	62	55.8	1	2	112	0.00	29.949 
23:30	69.3	69.3	69.3	62	55.7	0	1	112	0.00	29.948 
23:35	68.9	68.9	68.9	63	55.8	0	0	---	0.00	29.948 
23:40	68.8	68.8	68.8	63	55.7	0	0	---	0.00	29.948 
23:45	68.4	68.4	68.4	64	55.7	0	1	112	0.00	29.953 
23:50	68.1	68.1	68.1	65	55.9	0	0	---	0.00	29.953 
23:55	67.8	67.8	67.8	66	56.0	0	0	---	0.00	29.953 

CoCoRaHS
IN-AL-39
A2 Web Hosting
Creative Commons License
GoDaddy
Look for:

loaded 2017-10-17 22:30:12 • last modified 2010-11-18 10:43:29
Privacy PolicyDisclaimer
• wx.awcolley.com is powered by PmWiki v.2002016 •
• all content (unless otherwise noted) © 2017 A W Colley